createdAt,value
2016-10-19T00:00:45.126Z,1005.24
2016-10-19T00:01:45.106Z,1005.27
2016-10-19T00:02:45.070Z,1005.23
2016-10-19T00:03:45.043Z,1005.23
2016-10-19T00:04:45.015Z,1005.28
2016-10-19T00:05:44.988Z,1005.2
2016-10-19T00:06:44.961Z,1005.22
2016-10-19T00:07:44.934Z,1005.2
2016-10-19T00:08:44.905Z,1005.19
2016-10-19T00:09:44.878Z,1005.14
2016-10-19T00:10:44.851Z,1005.12
2016-10-19T00:11:44.823Z,1005.09
2016-10-19T00:12:44.795Z,1005.06
2016-10-19T00:13:44.768Z,1005.06
2016-10-19T00:14:44.740Z,1005.05
2016-10-19T00:15:44.713Z,1005.08
2016-10-19T00:16:44.685Z,1005.03
2016-10-19T00:17:44.659Z,1005.04
2016-10-19T00:18:44.631Z,1005.04
2016-10-19T00:19:44.604Z,1005.02
2016-10-19T00:20:44.575Z,1005
2016-10-19T00:21:44.548Z,1004.98
2016-10-19T00:22:44.522Z,1004.96
2016-10-19T00:23:44.495Z,1004.94
2016-10-19T00:24:44.466Z,1004.91
2016-10-19T00:25:44.440Z,1004.93
2016-10-19T00:26:44.413Z,1004.91
2016-10-19T00:27:44.506Z,1004.87
2016-10-19T00:28:44.357Z,1004.83
2016-10-19T00:29:44.330Z,1004.87
2016-10-19T00:30:44.302Z,1004.9
2016-10-19T00:31:44.275Z,1004.88
2016-10-19T00:32:44.246Z,1004.9
2016-10-19T00:33:44.219Z,1004.86
2016-10-19T00:34:44.193Z,1004.86
2016-10-19T00:35:44.163Z,1004.84
2016-10-19T00:36:44.138Z,1004.84
2016-10-19T00:37:44.109Z,1004.85
2016-10-19T00:38:44.082Z,1004.86
2016-10-19T00:39:44.054Z,1004.86
2016-10-19T00:40:44.027Z,1004.87
2016-10-19T00:41:43.999Z,1004.81
2016-10-19T00:42:43.988Z,1004.84
2016-10-19T00:43:43.945Z,1004.85
2016-10-19T00:44:43.917Z,1004.81
2016-10-19T00:45:43.889Z,1004.79
2016-10-19T00:46:43.862Z,1004.77
2016-10-19T00:47:43.834Z,1004.8
2016-10-19T00:48:43.808Z,1004.86
2016-10-19T00:49:43.779Z,1004.8
2016-10-19T00:50:43.751Z,1004.85
2016-10-19T00:51:43.725Z,1004.79
2016-10-19T00:52:43.697Z,1004.84
2016-10-19T00:53:43.668Z,1004.82
2016-10-19T00:54:43.641Z,1004.87
2016-10-19T00:55:43.614Z,1004.78
2016-10-19T00:56:43.587Z,1004.81
2016-10-19T00:57:43.560Z,1004.79
2016-10-19T00:58:43.532Z,1004.78
2016-10-19T00:59:43.506Z,1004.8
2016-10-19T01:00:43.477Z,1004.75
2016-10-19T01:01:43.449Z,1004.8
2016-10-19T01:02:43.424Z,1004.79
2016-10-19T01:03:43.395Z,1004.78
2016-10-19T01:04:43.367Z,1004.73
2016-10-19T01:05:43.340Z,1004.8
2016-10-19T01:06:43.314Z,1004.76
2016-10-19T01:07:43.284Z,1004.74
2016-10-19T01:08:43.258Z,1004.7
2016-10-19T01:09:43.231Z,1004.72
2016-10-19T01:10:43.203Z,1004.67
2016-10-19T01:11:43.175Z,1004.72
2016-10-19T01:12:43.147Z,1004.71
2016-10-19T01:13:43.120Z,1004.72
2016-10-19T01:14:43.093Z,1004.69
2016-10-19T01:15:43.065Z,1004.73
2016-10-19T01:16:43.039Z,1004.75
2016-10-19T01:17:43.010Z,1004.68
2016-10-19T01:18:42.983Z,1004.67
2016-10-19T01:19:42.955Z,1004.64
2016-10-19T01:20:42.929Z,1004.66
2016-10-19T01:21:42.900Z,1004.66
2016-10-19T01:22:42.872Z,1004.58
2016-10-19T01:23:42.845Z,1004.71
2016-10-19T01:24:42.817Z,1004.66
2016-10-19T01:25:42.791Z,1004.59
2016-10-19T01:26:42.763Z,1004.6
2016-10-19T01:27:42.735Z,1004.63
2016-10-19T01:28:42.757Z,1004.65
2016-10-19T01:29:42.679Z,1004.58
2016-10-19T01:30:42.652Z,1004.57
2016-10-19T01:31:42.625Z,1004.54
2016-10-19T01:32:42.596Z,1004.6
2016-10-19T01:33:42.568Z,1004.65
2016-10-19T01:34:42.540Z,1004.6
2016-10-19T01:35:42.513Z,1004.57
2016-10-19T01:36:42.485Z,1004.56
2016-10-19T01:37:42.457Z,1004.66
2016-10-19T01:38:42.430Z,1004.68
2016-10-19T01:39:42.402Z,1004.75
2016-10-19T01:40:42.373Z,1004.77
2016-10-19T01:41:42.346Z,1004.76
2016-10-19T01:42:42.319Z,1004.69
2016-10-19T01:43:42.291Z,1004.73
2016-10-19T01:44:42.262Z,1004.87
2016-10-19T01:45:42.234Z,1004.85
2016-10-19T01:46:42.207Z,1004.86
2016-10-19T01:47:42.180Z,1004.92
2016-10-19T01:48:42.151Z,1004.97
2016-10-19T01:49:42.123Z,1004.9
2016-10-19T01:50:42.097Z,1005.38
2016-10-19T01:51:42.066Z,1005.14
2016-10-19T01:52:42.046Z,1005.15
2016-10-19T01:53:42.012Z,1005.24
2016-10-19T01:54:41.984Z,1005.08
2016-10-19T01:55:41.955Z,1005.11
2016-10-19T01:56:41.927Z,1005.06
2016-10-19T01:57:41.899Z,1005.16
2016-10-19T01:58:41.871Z,1005.09
2016-10-19T01:59:41.842Z,1005.04
2016-10-19T02:00:41.814Z,1004.96
2016-10-19T02:01:41.787Z,1004.82
2016-10-19T02:02:41.758Z,1004.79
2016-10-19T02:03:41.728Z,1004.74
2016-10-19T02:04:41.700Z,1004.64
2016-10-19T02:05:41.672Z,1004.55
2016-10-19T02:06:41.643Z,1004.56
2016-10-19T02:07:41.615Z,1004.51
2016-10-19T02:08:41.587Z,1004.44
2016-10-19T02:09:41.558Z,1004.43
2016-10-19T02:10:41.529Z,1004.49
2016-10-19T02:11:41.499Z,1004.41
2016-10-19T02:12:41.472Z,1004.44
2016-10-19T02:13:41.444Z,1004.53
2016-10-19T02:14:41.413Z,1004.55
2016-10-19T02:15:41.385Z,1004.64
2016-10-19T02:16:41.357Z,1004.67
2016-10-19T02:17:41.328Z,1004.69
2016-10-19T02:18:41.299Z,1004.7
2016-10-19T02:19:41.270Z,1004.71
2016-10-19T02:20:41.240Z,1004.73
2016-10-19T02:21:41.212Z,1004.7
2016-10-19T02:22:41.185Z,1004.68
2016-10-19T02:23:41.155Z,1004.71
2016-10-19T02:24:41.126Z,1004.67
2016-10-19T02:25:41.097Z,1004.72
2016-10-19T02:26:41.068Z,1004.63
2016-10-19T02:27:41.040Z,1004.57
2016-10-19T02:28:41.010Z,1004.58
2016-10-19T02:29:40.982Z,1004.54
2016-10-19T02:30:40.952Z,1004.57
2016-10-19T02:31:40.923Z,1004.56
2016-10-19T02:32:40.894Z,1004.57
2016-10-19T02:33:40.866Z,1004.53
2016-10-19T02:34:40.837Z,1004.45
2016-10-19T02:35:40.808Z,1004.5
2016-10-19T02:36:40.779Z,1004.45
2016-10-19T02:37:40.752Z,1004.49
2016-10-19T02:38:40.724Z,1004.49
2016-10-19T02:39:40.694Z,1004.45
2016-10-19T02:40:40.664Z,1004.47
2016-10-19T02:41:40.636Z,1004.44
2016-10-19T02:42:40.607Z,1004.46
2016-10-19T02:43:40.578Z,1004.47
2016-10-19T02:44:40.549Z,1004.51
2016-10-19T02:45:40.521Z,1004.51
2016-10-19T02:46:40.492Z,1004.5
2016-10-19T02:47:40.463Z,1004.45
2016-10-19T02:48:40.434Z,1004.41
2016-10-19T02:49:40.406Z,1004.36
2016-10-19T02:50:40.377Z,1004.4
2016-10-19T02:51:40.347Z,1004.41
2016-10-19T02:52:40.337Z,1004.35
2016-10-19T02:53:40.290Z,1004.37
2016-10-19T02:54:40.262Z,1004.35
2016-10-19T02:55:40.233Z,1004.38
2016-10-19T02:56:40.204Z,1004.33
2016-10-19T02:57:40.174Z,1004.41
2016-10-19T02:58:40.145Z,1004.39
2016-10-19T02:59:40.118Z,1004.36
2016-10-19T03:00:40.089Z,1004.34
2016-10-19T03:01:40.058Z,1004.27
2016-10-19T03:02:40.030Z,1004.31
2016-10-19T03:03:40.003Z,1004.28
2016-10-19T03:04:39.972Z,1004.3
2016-10-19T03:05:39.943Z,1004.35
2016-10-19T03:06:39.914Z,1004.38
2016-10-19T03:07:39.888Z,1004.39
2016-10-19T03:08:39.856Z,1004.41
2016-10-19T03:09:39.827Z,1004.45
2016-10-19T03:10:39.799Z,1004.44
2016-10-19T03:11:39.770Z,1004.46
2016-10-19T03:12:39.742Z,1004.49
2016-10-19T03:13:39.713Z,1004.44
2016-10-19T03:14:39.684Z,1004.48
2016-10-19T03:15:39.655Z,1004.43
2016-10-19T03:16:39.626Z,1004.47
2016-10-19T03:17:39.596Z,1004.43
2016-10-19T03:18:39.569Z,1004.38
2016-10-19T03:19:39.538Z,1004.4
2016-10-19T03:20:39.509Z,1004.37
2016-10-19T03:21:39.482Z,1004.34
2016-10-19T03:22:39.453Z,1004.38
2016-10-19T03:23:39.423Z,1004.4
2016-10-19T03:24:39.394Z,1004.44
2016-10-19T03:25:39.366Z,1004.44
2016-10-19T03:26:39.337Z,1004.5
2016-10-19T03:27:39.308Z,1004.41
2016-10-19T03:28:39.279Z,1004.43
2016-10-19T03:29:39.251Z,1004.42
2016-10-19T03:30:39.220Z,1004.45
2016-10-19T03:31:39.193Z,1004.39
2016-10-19T03:32:39.165Z,1004.38
2016-10-19T03:33:39.135Z,1004.43
2016-10-19T03:34:39.107Z,1004.34
2016-10-19T03:35:39.078Z,1004.35
2016-10-19T03:36:39.048Z,1004.4
2016-10-19T03:37:39.020Z,1004.45
2016-10-19T03:38:38.992Z,1004.42
2016-10-19T03:39:38.963Z,1004.46
2016-10-19T03:40:38.934Z,1004.43
2016-10-19T03:41:38.904Z,1004.42
2016-10-19T03:42:38.877Z,1004.43
2016-10-19T03:43:38.847Z,1004.4
2016-10-19T03:44:38.819Z,1004.45
2016-10-19T03:45:38.790Z,1004.41
2016-10-19T03:46:38.762Z,1004.47
2016-10-19T03:47:38.733Z,1004.45
2016-10-19T03:48:38.704Z,1004.35
2016-10-19T03:49:38.675Z,1004.36
2016-10-19T03:50:38.647Z,1004.31
2016-10-19T03:51:38.618Z,1004.3
2016-10-19T03:52:38.588Z,1004.38
2016-10-19T03:53:38.560Z,1004.35
2016-10-19T03:54:38.531Z,1004.35
2016-10-19T03:55:38.504Z,1004.3
2016-10-19T03:56:38.474Z,1004.27
2016-10-19T03:57:38.446Z,1004.27
2016-10-19T03:58:38.417Z,1004.25
2016-10-19T03:59:38.387Z,1004.22
2016-10-19T04:00:38.360Z,1004.27
2016-10-19T04:01:38.331Z,1004.3
2016-10-19T04:02:38.303Z,1004.28
2016-10-19T04:03:38.272Z,1004.24
2016-10-19T04:04:38.244Z,1004.23
2016-10-19T04:05:38.215Z,1004.22
2016-10-19T04:06:38.187Z,1004.18
2016-10-19T04:07:38.159Z,1004.16
2016-10-19T04:08:38.130Z,1004.17
2016-10-19T04:09:38.102Z,1004.18
2016-10-19T04:10:38.072Z,1004.16
2016-10-19T04:11:38.044Z,1004.19
2016-10-19T04:12:38.015Z,1004.18
2016-10-19T04:13:37.988Z,1004.19
2016-10-19T04:14:37.958Z,1004.2
2016-10-19T04:15:37.930Z,1004.14
2016-10-19T04:16:37.901Z,1004.16
2016-10-19T04:17:37.871Z,1004.12
2016-10-19T04:18:37.843Z,1004.12
2016-10-19T04:19:37.814Z,1004.13
2016-10-19T04:20:37.785Z,1004.1
2016-10-19T04:21:37.756Z,1004.1
2016-10-19T04:22:37.727Z,1004.13
2016-10-19T04:23:37.699Z,1004.1
2016-10-19T04:24:37.671Z,1004.07
2016-10-19T04:25:37.641Z,1004.12
2016-10-19T04:26:37.613Z,1004.08
2016-10-19T04:27:37.585Z,1004.05
2016-10-19T04:28:37.554Z,1004.04
2016-10-19T04:29:37.526Z,1004.03
2016-10-19T04:30:37.497Z,1004.09
2016-10-19T04:31:37.468Z,1004
2016-10-19T04:32:37.439Z,1004.04
2016-10-19T04:33:37.411Z,1004.02
2016-10-19T04:34:37.382Z,1004.02
2016-10-19T04:35:37.353Z,1003.97
2016-10-19T04:36:37.325Z,1003.97
2016-10-19T04:37:37.295Z,1004.01
2016-10-19T04:38:37.269Z,1004.07
2016-10-19T04:39:37.237Z,1004.05
2016-10-19T04:40:37.209Z,1004.12
2016-10-19T04:41:37.181Z,1004.17
2016-10-19T04:42:37.151Z,1004.16
2016-10-19T04:43:37.122Z,1004.14
2016-10-19T04:44:37.093Z,1004.15
2016-10-19T04:45:37.065Z,1004.17
2016-10-19T04:46:37.037Z,1004.13
2016-10-19T04:47:37.006Z,1004.09
2016-10-19T04:48:36.978Z,1004.09
2016-10-19T04:49:36.951Z,1004.14
2016-10-19T04:50:36.921Z,1004.14
2016-10-19T04:51:36.891Z,1004.08
2016-10-19T04:52:36.864Z,1004.08
2016-10-19T04:53:36.835Z,1004.02
2016-10-19T04:54:36.806Z,1004.03
2016-10-19T04:55:36.777Z,1004.06
2016-10-19T04:56:36.749Z,1004.05
2016-10-19T04:57:36.731Z,1004
2016-10-19T04:58:36.690Z,1003.99
2016-10-19T04:59:36.662Z,1004.04
2016-10-19T05:00:36.632Z,1003.97
2016-10-19T05:01:36.602Z,1004.01
2016-10-19T05:02:36.575Z,1003.93
2016-10-19T05:03:36.546Z,1003.95
2016-10-19T05:04:36.517Z,1003.87
2016-10-19T05:05:36.487Z,1003.83
2016-10-19T05:06:36.460Z,1003.8
2016-10-19T05:07:36.431Z,1003.85
2016-10-19T05:08:36.403Z,1003.8
2016-10-19T05:09:36.372Z,1003.79
2016-10-19T05:10:36.345Z,1003.72
2016-10-19T05:11:36.315Z,1003.78
2016-10-19T05:12:36.286Z,1003.72
2016-10-19T05:13:36.258Z,1003.64
2016-10-19T05:14:36.228Z,1003.7
2016-10-19T05:15:36.200Z,1003.65
2016-10-19T05:16:36.171Z,1003.66
2016-10-19T05:17:36.143Z,1003.58
2016-10-19T05:18:36.113Z,1003.54
2016-10-19T05:19:36.085Z,1003.61
2016-10-19T05:20:36.056Z,1003.59
2016-10-19T05:21:36.027Z,1003.61
2016-10-19T05:22:35.998Z,1003.65
2016-10-19T05:23:35.969Z,1003.6
2016-10-19T05:24:35.941Z,1003.51
2016-10-19T05:25:35.913Z,1003.63
2016-10-19T05:26:35.884Z,1003.62
2016-10-19T05:27:35.854Z,1003.64
2016-10-19T05:28:35.826Z,1003.66
2016-10-19T05:29:35.797Z,1003.64
2016-10-19T05:30:35.769Z,1003.61
2016-10-19T05:31:35.741Z,1003.62
2016-10-19T05:32:35.711Z,1003.57
2016-10-19T05:33:35.683Z,1003.57
2016-10-19T05:34:35.653Z,1003.55
2016-10-19T05:35:35.626Z,1003.58
2016-10-19T05:36:35.597Z,1003.59
2016-10-19T05:37:35.569Z,1003.62
2016-10-19T05:38:35.539Z,1003.54
2016-10-19T05:39:35.512Z,1003.59
2016-10-19T05:40:35.482Z,1003.58
2016-10-19T05:41:35.456Z,1003.58
2016-10-19T05:42:35.428Z,1003.53
2016-10-19T05:43:35.399Z,1003.62
2016-10-19T05:44:35.371Z,1003.63
2016-10-19T05:45:35.341Z,1003.59
2016-10-19T05:46:35.313Z,1003.66
2016-10-19T05:47:35.284Z,1003.62
2016-10-19T05:48:35.255Z,1003.64
2016-10-19T05:49:35.227Z,1003.6
2016-10-19T05:50:35.199Z,1003.64
2016-10-19T05:51:35.169Z,1003.65
2016-10-19T05:52:35.140Z,1003.65
2016-10-19T05:53:35.112Z,1003.61
2016-10-19T05:54:35.084Z,1003.55
2016-10-19T05:55:35.055Z,1003.5
2016-10-19T05:56:35.027Z,1003.49
2016-10-19T05:57:34.999Z,1003.48
2016-10-19T05:58:34.970Z,1003.52
2016-10-19T05:59:34.942Z,1003.5
2016-10-19T06:00:34.913Z,1003.52
2016-10-19T06:01:34.884Z,1003.42
2016-10-19T06:02:34.856Z,1003.49
2016-10-19T06:03:34.826Z,1003.5
2016-10-19T06:04:34.798Z,1003.46
2016-10-19T06:05:34.770Z,1003.51
2016-10-19T06:06:34.743Z,1003.51
2016-10-19T06:07:34.712Z,1003.54
2016-10-19T06:08:34.685Z,1003.48
2016-10-19T06:09:34.656Z,1003.51
2016-10-19T06:10:34.628Z,1003.51
2016-10-19T06:11:34.598Z,1003.49
2016-10-19T06:12:34.570Z,1003.5
2016-10-19T06:13:34.542Z,1003.47
2016-10-19T06:14:34.514Z,1003.46
2016-10-19T06:15:34.485Z,1003.44
2016-10-19T06:16:34.458Z,1003.45
2016-10-19T06:17:34.430Z,1003.48
2016-10-19T06:18:34.399Z,1003.48
2016-10-19T06:19:34.372Z,1003.47
2016-10-19T06:20:34.343Z,1003.43
2016-10-19T06:21:34.315Z,1003.45
2016-10-19T06:22:34.287Z,1003.45
2016-10-19T06:23:34.258Z,1003.43
2016-10-19T06:24:34.231Z,1003.4
2016-10-19T06:25:34.202Z,1003.46
2016-10-19T06:26:34.172Z,1003.4
2016-10-19T06:27:34.144Z,1003.43
2016-10-19T06:28:34.117Z,1003.37
2016-10-19T06:29:34.088Z,1003.4
2016-10-19T06:30:34.060Z,1003.3
2016-10-19T06:31:34.031Z,1003.35
2016-10-19T06:32:34.004Z,1003.33
2016-10-19T06:33:33.974Z,1003.33
2016-10-19T06:34:33.946Z,1003.29
2016-10-19T06:35:33.918Z,1003.2
2016-10-19T06:36:33.889Z,1003.24
2016-10-19T06:37:33.862Z,1003.15
2016-10-19T06:38:33.835Z,1003.26
2016-10-19T06:39:33.806Z,1003.15
2016-10-19T06:40:33.776Z,1003.13
2016-10-19T06:41:33.750Z,1003.09
2016-10-19T06:42:33.722Z,1003.15
2016-10-19T06:43:33.694Z,1003.13
2016-10-19T06:44:33.663Z,1003.06
2016-10-19T06:45:33.636Z,1003.12
2016-10-19T06:46:33.608Z,1003.07
2016-10-19T06:47:33.579Z,1003.11
2016-10-19T06:48:33.551Z,1003.12
2016-10-19T06:49:33.523Z,1003.09
2016-10-19T06:50:33.495Z,1003.12
2016-10-19T06:51:33.469Z,1003.13
2016-10-19T06:52:33.438Z,1003.11
2016-10-19T06:53:33.416Z,1003.1
2016-10-19T06:54:33.383Z,1003.03
2016-10-19T06:55:33.353Z,1003.02
2016-10-19T06:56:33.325Z,1003.02
2016-10-19T06:57:33.297Z,1003
2016-10-19T06:58:33.268Z,1002.96
2016-10-19T06:59:33.240Z,1002.88
2016-10-19T07:00:33.212Z,1002.92
2016-10-19T07:01:33.185Z,1002.89
2016-10-19T07:02:33.156Z,1002.89
2016-10-19T07:03:33.127Z,1002.85
2016-10-19T07:04:33.224Z,1002.84
2016-10-19T07:05:33.072Z,1002.81
2016-10-19T07:06:33.043Z,1002.81
2016-10-19T07:07:33.070Z,1002.8
2016-10-19T07:08:32.988Z,1002.8
2016-10-19T07:09:32.959Z,1002.8
2016-10-19T07:10:32.931Z,1002.78
2016-10-19T07:11:32.903Z,1002.69
2016-10-19T07:12:32.875Z,1002.73
2016-10-19T07:13:32.846Z,1002.72
2016-10-19T07:14:32.817Z,1002.79
2016-10-19T07:15:32.791Z,1002.71
2016-10-19T07:16:32.762Z,1002.75
2016-10-19T07:17:32.734Z,1002.74
2016-10-19T07:18:32.707Z,1002.7
2016-10-19T07:19:32.679Z,1002.7
2016-10-19T07:20:32.650Z,1002.75
2016-10-19T07:21:32.621Z,1002.73
2016-10-19T07:22:32.697Z,1002.78
2016-10-19T07:23:32.566Z,1002.76
2016-10-19T07:24:32.538Z,1002.69
2016-10-19T07:25:32.509Z,1002.78
2016-10-19T07:26:32.482Z,1002.79
2016-10-19T07:27:32.453Z,1002.7
2016-10-19T07:28:32.425Z,1002.73
2016-10-19T07:29:32.397Z,1002.7
2016-10-19T07:30:32.370Z,1002.7
2016-10-19T07:31:32.340Z,1002.65
2016-10-19T07:32:32.312Z,1002.76
2016-10-19T07:33:32.285Z,1002.7
2016-10-19T07:34:32.257Z,1002.75
2016-10-19T07:35:32.231Z,1002.68
2016-10-19T07:36:32.201Z,1002.62
2016-10-19T07:37:32.172Z,1002.59
2016-10-19T07:38:32.144Z,1002.59
2016-10-19T07:39:32.115Z,1002.48
2016-10-19T07:40:32.087Z,1002.47
2016-10-19T07:41:32.059Z,1002.44
2016-10-19T07:42:32.032Z,1002.35
2016-10-19T07:43:32.003Z,1002.36
2016-10-19T07:44:31.976Z,1002.24
2016-10-19T07:45:31.948Z,1002.26
2016-10-19T07:46:31.918Z,1002.23
2016-10-19T07:47:31.893Z,1002.17
2016-10-19T07:48:31.862Z,1002.14
2016-10-19T07:49:31.834Z,1002.2
2016-10-19T07:50:31.807Z,1002.12
2016-10-19T07:51:31.778Z,1002.16
2016-10-19T07:52:31.750Z,1002.13
2016-10-19T07:53:31.721Z,1002.06
2016-10-19T07:54:31.694Z,1002.06
2016-10-19T07:55:31.665Z,1002.07
2016-10-19T07:56:31.637Z,1002.04
2016-10-19T07:57:31.667Z,1002.03
2016-10-19T07:58:31.580Z,1002.03
2016-10-19T07:59:31.552Z,1001.96
2016-10-19T08:00:31.523Z,1002.04
2016-10-19T08:01:31.497Z,1001.96
2016-10-19T08:02:31.468Z,1002
2016-10-19T08:03:31.440Z,1001.91
2016-10-19T08:04:31.412Z,1001.87
2016-10-19T08:05:31.383Z,1001.8
2016-10-19T08:06:31.356Z,1001.76
2016-10-19T08:07:31.328Z,1001.65
2016-10-19T08:08:31.299Z,1001.66
2016-10-19T08:09:31.271Z,1001.61
2016-10-19T08:10:31.242Z,1001.56
2016-10-19T08:11:31.215Z,1001.53
2016-10-19T08:12:31.185Z,1001.44
2016-10-19T08:13:31.157Z,1001.42
2016-10-19T08:14:31.131Z,1001.42
2016-10-19T08:15:31.100Z,1001.38
2016-10-19T08:16:31.072Z,1001.37
2016-10-19T08:17:31.045Z,1001.32
2016-10-19T08:18:31.018Z,1001.25
2016-10-19T08:19:30.989Z,1001.23
2016-10-19T08:20:30.960Z,1001.2
2016-10-19T08:21:30.937Z,1001.21
2016-10-19T08:22:30.905Z,1001.22
2016-10-19T08:23:30.875Z,1001.21
2016-10-19T08:24:30.848Z,1001.16
2016-10-19T08:25:30.820Z,1001.17
2016-10-19T08:26:30.791Z,1001.1
2016-10-19T08:27:30.762Z,1001.06
2016-10-19T08:28:30.734Z,1000.99
2016-10-19T08:29:30.962Z,1000.92
2016-10-19T08:30:30.677Z,1000.98
2016-10-19T08:31:30.650Z,1000.99
2016-10-19T08:32:30.622Z,1000.94
2016-10-19T08:33:30.594Z,1000.94
2016-10-19T08:34:30.616Z,1000.88
2016-10-19T08:35:30.537Z,1000.92
2016-10-19T08:36:30.508Z,1000.84
2016-10-19T08:37:30.587Z,1000.9
2016-10-19T08:38:30.587Z,1000.91
2016-10-19T08:39:30.423Z,1000.85
2016-10-19T08:40:30.396Z,1000.85
2016-10-19T08:41:30.366Z,1000.85
2016-10-19T08:42:30.339Z,1000.81
2016-10-19T08:43:30.310Z,1000.82
2016-10-19T08:44:30.281Z,1000.81
2016-10-19T08:45:30.253Z,1000.78
2016-10-19T08:46:30.226Z,1000.81
2016-10-19T08:47:30.197Z,1000.81
2016-10-19T08:48:30.168Z,1000.77
2016-10-19T08:49:30.140Z,1000.71
2016-10-19T08:50:30.116Z,1000.69
2016-10-19T08:51:30.085Z,1000.69
2016-10-19T08:52:30.056Z,1000.63
2016-10-19T08:53:30.029Z,1000.55
2016-10-19T08:54:30.001Z,1000.56
2016-10-19T08:55:29.972Z,1000.25
2016-10-19T08:56:29.944Z,1000.36
2016-10-19T08:57:29.917Z,1000.48
2016-10-19T08:58:29.888Z,1000.43
2016-10-19T08:59:29.861Z,1000.43
2016-10-19T09:00:29.832Z,1000.3
2016-10-19T09:01:29.809Z,1000.38
2016-10-19T09:02:29.792Z,1000.27
2016-10-19T09:03:29.749Z,1000.22
2016-10-19T09:04:29.720Z,1000.3
2016-10-19T09:05:29.692Z,1000.16
2016-10-19T09:06:29.664Z,1000.15
2016-10-19T09:07:29.637Z,1000.15
2016-10-19T09:08:29.609Z,1000.13
2016-10-19T09:09:29.604Z,1000.17
2016-10-19T09:10:29.554Z,1000.15
2016-10-19T09:11:29.525Z,1000.15
2016-10-19T09:12:29.497Z,1000.17
2016-10-19T09:13:29.468Z,1000.18
2016-10-19T09:14:29.441Z,1000.21
2016-10-19T09:15:29.412Z,1000.22
2016-10-19T09:16:29.386Z,1000.14
2016-10-19T09:17:29.357Z,1000.14
2016-10-19T09:18:29.330Z,1000.12
2016-10-19T09:19:29.301Z,1000.22
2016-10-19T09:20:29.275Z,1000.08
2016-10-19T09:21:29.246Z,1000.14
2016-10-19T09:22:29.280Z,999.96
2016-10-19T09:23:29.191Z,1000.14
2016-10-19T09:24:29.163Z,1000.06
2016-10-19T09:25:29.135Z,1000.1
2016-10-19T09:26:29.108Z,1000.15
2016-10-19T09:27:29.081Z,1000.06
2016-10-19T09:28:29.053Z,1000.03
2016-10-19T09:29:29.026Z,1000.08
2016-10-19T09:30:28.998Z,999.98
2016-10-19T09:31:28.972Z,1000
2016-10-19T09:32:28.943Z,999.92
2016-10-19T09:33:28.917Z,999.98
2016-10-19T09:34:28.888Z,999.88
2016-10-19T09:35:28.860Z,999.94
2016-10-19T09:36:28.836Z,999.97
2016-10-19T09:37:28.806Z,999.88
2016-10-19T09:38:28.779Z,999.95
2016-10-19T09:39:28.753Z,999.91
2016-10-19T09:40:28.724Z,999.99
2016-10-19T09:41:28.697Z,999.95
2016-10-19T09:42:28.669Z,999.88
2016-10-19T09:43:28.643Z,999.87
2016-10-19T09:44:28.614Z,999.88
2016-10-19T09:45:28.588Z,999.99
2016-10-19T09:46:28.559Z,999.8
2016-10-19T09:47:28.533Z,999.59
2016-10-19T09:48:28.504Z,999.84
2016-10-19T09:49:28.479Z,999.75
2016-10-19T09:50:28.450Z,999.82
2016-10-19T09:51:28.453Z,999.73
2016-10-19T09:52:28.404Z,999.49
2016-10-19T09:53:28.368Z,999.6
2016-10-19T09:54:28.339Z,999.68
2016-10-19T09:55:28.313Z,999.63
2016-10-19T09:56:28.285Z,999.58
2016-10-19T09:57:28.258Z,999.56
2016-10-19T09:58:28.230Z,999.65
2016-10-19T09:59:28.206Z,999.6
2016-10-19T10:00:28.176Z,999.54
2016-10-19T10:01:28.149Z,999.53
2016-10-19T10:02:28.122Z,999.45
2016-10-19T10:03:28.094Z,999.5
2016-10-19T10:04:28.069Z,999.55
2016-10-19T10:05:28.041Z,999.58
2016-10-19T10:06:28.013Z,999.35
2016-10-19T10:07:27.986Z,999.47
2016-10-19T10:08:27.958Z,999.31
2016-10-19T10:09:27.931Z,999.46
2016-10-19T10:10:27.905Z,999.47
2016-10-19T10:11:27.879Z,999.18
2016-10-19T10:12:27.850Z,999.28
2016-10-19T10:13:27.824Z,999.31
2016-10-19T10:14:27.796Z,999.28
2016-10-19T10:15:27.769Z,999.25
2016-10-19T10:16:27.742Z,999.37
2016-10-19T10:17:27.715Z,999.19
2016-10-19T10:18:27.689Z,999.22
2016-10-19T10:19:27.661Z,999.23
2016-10-19T10:20:27.634Z,999.19
2016-10-19T10:21:27.607Z,999.22
2016-10-19T10:22:27.581Z,999.02
2016-10-19T10:23:27.552Z,999.14
2016-10-19T10:24:27.526Z,999.25
2016-10-19T10:25:27.499Z,999.24
2016-10-19T10:26:27.472Z,999.15
2016-10-19T10:27:27.446Z,999.21
2016-10-19T10:28:27.420Z,999.2
2016-10-19T10:29:27.394Z,999.13
2016-10-19T10:30:27.365Z,999.25
2016-10-19T10:31:27.341Z,999.17
2016-10-19T10:32:27.313Z,999.22
2016-10-19T10:33:27.317Z,999.15
2016-10-19T10:34:27.258Z,999.21
2016-10-19T10:35:27.231Z,999.09
2016-10-19T10:36:27.205Z,999.1
2016-10-19T10:37:27.179Z,998.98
2016-10-19T10:38:27.150Z,999.03
2016-10-19T10:39:27.129Z,999.1
2016-10-19T10:40:27.100Z,999.12
2016-10-19T10:41:27.071Z,999
2016-10-19T10:42:27.045Z,999.03
2016-10-19T10:43:27.018Z,999.04
2016-10-19T10:44:26.991Z,998.93
2016-10-19T10:45:26.964Z,998.85
2016-10-19T10:46:26.937Z,998.98
2016-10-19T10:47:26.911Z,998.84
2016-10-19T10:48:26.883Z,998.98
2016-10-19T10:49:26.856Z,998.79
2016-10-19T10:50:26.830Z,998.95
2016-10-19T10:51:26.804Z,998.9
2016-10-19T10:52:26.776Z,998.9
2016-10-19T10:53:26.751Z,998.91
2016-10-19T10:54:26.724Z,998.95
2016-10-19T10:55:26.696Z,998.94
2016-10-19T10:56:26.772Z,998.91
2016-10-19T10:57:26.668Z,999.01
2016-10-19T10:58:26.617Z,998.96
2016-10-19T10:59:26.588Z,998.99
2016-10-19T11:00:26.562Z,998.88
2016-10-19T11:01:26.535Z,998.83
2016-10-19T11:02:26.509Z,998.74
2016-10-19T11:03:26.482Z,998.82
2016-10-19T11:04:26.455Z,998.75
2016-10-19T11:05:26.428Z,998.78
2016-10-19T11:06:26.652Z,999.08
2016-10-19T11:07:26.375Z,998.82
2016-10-19T11:08:26.348Z,998.76
2016-10-19T11:09:26.322Z,998.72
2016-10-19T11:10:26.294Z,998.82
2016-10-19T11:11:26.268Z,998.84
2016-10-19T11:12:26.283Z,998.85
2016-10-19T11:13:26.216Z,998.74
2016-10-19T11:14:26.188Z,998.47
2016-10-19T11:15:26.162Z,998.67
2016-10-19T11:16:26.136Z,998.7
2016-10-19T11:17:26.109Z,998.54
2016-10-19T11:18:26.082Z,998.57
2016-10-19T11:19:26.056Z,998.61
2016-10-19T11:20:26.030Z,998.69
2016-10-19T11:21:26.003Z,998.55
2016-10-19T11:22:25.977Z,998.48
2016-10-19T11:23:25.951Z,998.45
2016-10-19T11:24:25.923Z,998.52
2016-10-19T11:25:25.897Z,998.45
2016-10-19T11:26:25.871Z,998.45
2016-10-19T11:27:25.844Z,998.51
2016-10-19T11:28:25.819Z,998.37
2016-10-19T11:29:25.792Z,998.49
2016-10-19T11:30:25.977Z,998.42
2016-10-19T11:31:25.741Z,998.35
2016-10-19T11:32:25.715Z,998.32
2016-10-19T11:33:25.728Z,998.46
2016-10-19T11:34:25.664Z,998.41
2016-10-19T11:35:25.639Z,998.25
2016-10-19T11:36:25.611Z,998.45
2016-10-19T11:37:25.586Z,998.34
2016-10-19T11:38:25.561Z,998.24
2016-10-19T11:39:25.537Z,998.19
2016-10-19T11:40:25.510Z,998.2
2016-10-19T11:41:25.485Z,998.11
2016-10-19T11:42:25.460Z,998.14
2016-10-19T11:43:25.433Z,998.09
2016-10-19T11:44:25.408Z,998.09
2016-10-19T11:45:25.388Z,998.07
2016-10-19T11:46:25.380Z,998.02
2016-10-19T11:47:25.331Z,997.95
2016-10-19T11:48:25.304Z,997.91
2016-10-19T11:49:25.280Z,997.89
2016-10-19T11:50:25.254Z,997.97
2016-10-19T11:51:25.228Z,997.84
2016-10-19T11:52:25.202Z,997.94
2016-10-19T11:53:25.176Z,997.88
2016-10-19T11:54:25.150Z,997.96
2016-10-19T11:55:25.125Z,998.01
2016-10-19T11:56:25.101Z,997.94
2016-10-19T11:57:25.077Z,997.76
2016-10-19T11:58:25.049Z,997.76
2016-10-19T11:59:25.024Z,997.72
2016-10-19T12:00:25.000Z,997.88
2016-10-19T12:01:24.975Z,997.78
2016-10-19T12:02:24.949Z,997.99
2016-10-19T12:03:24.924Z,997.8
2016-10-19T12:04:24.900Z,997.7
2016-10-19T12:05:24.874Z,997.88
2016-10-19T12:06:24.849Z,997.74
2016-10-19T12:07:24.826Z,997.68
2016-10-19T12:08:24.802Z,997.79
2016-10-19T12:09:24.778Z,997.7
2016-10-19T12:10:24.753Z,997.79
2016-10-19T12:11:24.729Z,997.74
2016-10-19T12:12:24.703Z,997.7
2016-10-19T12:13:24.679Z,997.71